createdAt,value
2022-08-09T00:00:30.074Z,47.41
2022-08-09T00:02:58.277Z,47.02
2022-08-09T00:06:17.698Z,46.58
2022-08-09T00:08:31.993Z,47.04
2022-08-09T00:11:06.069Z,46.50
2022-08-09T00:13:50.729Z,46.95
2022-08-09T00:16:25.867Z,46.92
2022-08-09T00:19:09.524Z,46.02
2022-08-09T00:21:55.467Z,46.59
2022-08-09T00:24:27.444Z,46.35
2022-08-09T00:26:57.389Z,46.36
2022-08-09T00:30:16.565Z,46.10
2022-08-09T00:32:25.261Z,46.03
2022-08-09T00:34:56.556Z,45.60
2022-08-09T00:37:26.790Z,46.10
2022-08-09T00:40:14.203Z,46.23
2022-08-09T00:44:10.640Z,46.23
2022-08-09T00:45:35.030Z,46.18
2022-08-09T00:48:05.613Z,45.76
2022-08-09T00:50:34.053Z,46.13
2022-08-09T00:53:10.379Z,46.24
2022-08-09T00:56:05.280Z,45.94
2022-08-09T00:58:30.518Z,45.62
2022-08-09T01:00:59.435Z,45.86
2022-08-09T01:03:40.840Z,45.92
2022-08-09T01:06:21.348Z,46.14
2022-08-09T01:08:52.867Z,46.28
2022-08-09T01:11:53.067Z,46.23
2022-08-09T01:14:37.467Z,46.20
2022-08-09T01:17:17.909Z,46.52
2022-08-09T01:20:06.518Z,46.45
2022-08-09T01:24:01.078Z,45.96
2022-08-09T01:26:32.069Z,46.52
2022-08-09T01:29:01.836Z,46.45
2022-08-09T01:32:29.663Z,46.69
2022-08-09T01:34:22.416Z,46.77
2022-08-09T01:36:52.596Z,46.62
2022-08-09T01:39:23.091Z,47.13
2022-08-09T01:41:53.579Z,47.21
2022-08-09T01:44:27.066Z,46.31
2022-08-09T01:46:55.668Z,46.54
2022-08-09T01:49:25.553Z,46.76
2022-08-09T01:52:07.598Z,47.32
2022-08-09T01:54:40.112Z,47.06
2022-08-09T01:57:12.071Z,47.08
2022-08-09T01:59:51.562Z,47.28
2022-08-09T02:02:31.086Z,47.35
2022-08-09T02:05:05.667Z,47.92
2022-08-09T02:08:35.393Z,47.44
2022-08-09T02:10:51.578Z,47.71
2022-08-09T02:13:25.844Z,47.31
2022-08-09T02:15:56.377Z,47.28
2022-08-09T02:18:28.752Z,47.46
2022-08-09T02:21:00.318Z,47.06
2022-08-09T02:23:39.886Z,46.85
2022-08-09T02:26:25.219Z,47.81
2022-08-09T02:28:59.507Z,46.93
2022-08-09T02:31:35.562Z,47.48
2022-08-09T02:34:25.787Z,47.66
2022-08-09T02:37:06.841Z,47.09
2022-08-09T02:39:42.825Z,47.54
2022-08-09T02:42:24.866Z,47.25
2022-08-09T02:45:00.762Z,47.15
2022-08-09T02:47:33.871Z,47.32
2022-08-09T02:50:25.468Z,46.76
2022-08-09T02:53:00.420Z,47.22
2022-08-09T02:55:46.426Z,47.20
2022-08-09T02:58:36.350Z,47.42
2022-08-09T03:01:07.771Z,47.47
2022-08-09T03:04:13.327Z,48.21
2022-08-09T03:06:29.157Z,47.89
2022-08-09T03:08:59.586Z,48.35
2022-08-09T03:12:06.473Z,48.74
2022-08-09T03:14:18.527Z,48.55
2022-08-09T03:16:48.611Z,48.91
2022-08-09T03:19:59.035Z,49.37
2022-08-09T03:22:12.342Z,49.03
2022-08-09T03:25:05.907Z,49.46
2022-08-09T03:27:45.569Z,50.29
2022-08-09T03:30:30.269Z,49.23
2022-08-09T03:33:17.731Z,49.65
2022-08-09T03:36:13.805Z,50.17
2022-08-09T03:38:44.634Z,50.39
2022-08-09T03:41:16.098Z,50.64
2022-08-09T03:44:02.882Z,50.74
2022-08-09T03:46:34.573Z,50.24
2022-08-09T03:49:07.883Z,50.98
2022-08-09T03:51:58.711Z,50.80
2022-08-09T03:54:34.942Z,51.14
2022-08-09T03:57:18.120Z,51.74
2022-08-09T03:59:53.822Z,52.39
2022-08-09T04:02:26.604Z,51.92
2022-08-09T04:04:58.645Z,52.33
2022-08-09T04:07:33.678Z,52.87
2022-08-09T04:10:18.440Z,52.36
2022-08-09T04:12:54.357Z,51.93
2022-08-09T04:15:52.529Z,53.04
2022-08-09T04:18:16.590Z,52.67
2022-08-09T04:20:48.221Z,52.72
2022-08-09T04:23:17.738Z,52.74
2022-08-09T04:25:51.995Z,53.21
2022-08-09T04:28:34.554Z,54.13
2022-08-09T04:31:08.314Z,53.71
2022-08-09T04:33:47.204Z,53.68
2022-08-09T04:36:23.496Z,53.50
2022-08-09T04:38:52.846Z,53.73
2022-08-09T04:41:23.592Z,53.71
2022-08-09T04:43:53.938Z,52.78
2022-08-09T04:46:57.023Z,52.59
2022-08-09T04:49:22.321Z,53.48
2022-08-09T04:52:09.704Z,54.59
2022-08-09T04:54:37.569Z,54.92
2022-08-09T04:57:09.280Z,54.90
2022-08-09T04:59:38.334Z,55.07
2022-08-09T05:02:07.713Z,55.96
2022-08-09T05:04:36.044Z,55.11
2022-08-09T05:07:05.662Z,54.80
2022-08-09T05:09:42.009Z,55.47
2022-08-09T05:15:11.394Z,53.74
2022-08-09T05:18:50.510Z,52.60
2022-08-09T05:20:29.842Z,53.31
2022-08-09T05:24:00.692Z,54.14
2022-08-09T05:25:51.096Z,53.20
2022-08-09T05:28:19.725Z,52.75
2022-08-09T05:30:48.183Z,53.63
2022-08-09T05:33:15.849Z,52.55
2022-08-09T05:35:49.794Z,53.25
2022-08-09T05:38:21.971Z,53.66
2022-08-09T05:40:50.746Z,52.60
2022-08-09T05:43:19.228Z,52.79
2022-08-09T05:45:56.727Z,50.81
2022-08-09T05:48:32.742Z,50.46
2022-08-09T05:51:42.951Z,50.38
2022-08-09T05:53:56.693Z,50.83
2022-08-09T05:56:27.278Z,50.99
2022-08-09T05:58:58.825Z,49.96
2022-08-09T06:01:33.934Z,49.94
2022-08-09T06:04:10.160Z,49.85
2022-08-09T06:06:46.818Z,50.23
2022-08-09T06:09:53.865Z,50.46
2022-08-09T06:12:08.283Z,50.30
2022-08-09T06:14:36.879Z,48.49
2022-08-09T06:17:10.005Z,48.58
2022-08-09T06:19:38.630Z,48.21
2022-08-09T06:22:15.010Z,48.19
2022-08-09T06:24:43.147Z,46.46
2022-08-09T06:27:10.767Z,45.67
2022-08-09T06:29:48.130Z,45.80
2022-08-09T06:32:59.606Z,45.18
2022-08-09T06:35:20.924Z,46.23
2022-08-09T06:38:06.961Z,45.46
2022-08-09T06:40:34.969Z,45.85
2022-08-09T06:43:03.205Z,46.27
2022-08-09T06:46:06.471Z,46.28
2022-08-09T06:48:30.398Z,45.59
2022-08-09T06:51:04.409Z,45.18
2022-08-09T06:53:38.419Z,45.41
2022-08-09T06:56:09.330Z,44.71
2022-08-09T07:00:49.165Z,44.21
2022-08-09T07:01:27.565Z,44.11
2022-08-09T07:04:04.074Z,44.97
2022-08-09T07:06:31.911Z,44.96
2022-08-09T07:08:59.990Z,45.58
2022-08-09T07:11:28.432Z,45.57
2022-08-09T07:14:26.751Z,44.97
2022-08-09T07:16:58.361Z,44.56
2022-08-09T07:19:26.667Z,44.29
2022-08-09T07:21:57.020Z,44.08
2022-08-09T07:24:32.318Z,44.06
2022-08-09T07:27:26.783Z,43.70
2022-08-09T07:30:00.865Z,42.62
2022-08-09T07:32:32.573Z,43.17
2022-08-09T07:35:07.891Z,42.18
2022-08-09T07:37:45.329Z,41.69
2022-08-09T07:40:17.510Z,41.60
2022-08-09T07:42:59.325Z,41.65
2022-08-09T07:45:39.589Z,41.71
2022-08-09T07:48:25.869Z,41.67
2022-08-09T07:51:09.042Z,40.74
2022-08-09T07:54:06.223Z,41.28
2022-08-09T07:56:44.946Z,41.99
2022-08-09T07:59:33.649Z,42.12
2022-08-09T08:02:04.879Z,41.13
2022-08-09T08:04:33.341Z,40.30
2022-08-09T08:07:14.954Z,40.56
2022-08-09T08:09:55.110Z,40.03
2022-08-09T08:12:43.802Z,39.61
2022-08-09T08:15:16.644Z,40.42
2022-08-09T08:17:58.267Z,40.31
2022-08-09T08:20:32.271Z,40.25
2022-08-09T08:23:15.852Z,40.30
2022-08-09T08:25:49.739Z,39.72
2022-08-09T08:28:31.854Z,39.34
2022-08-09T08:31:14.418Z,39.89
2022-08-09T08:33:52.269Z,38.40
2022-08-09T08:36:29.362Z,38.90
2022-08-09T08:39:00.176Z,39.38
2022-08-09T08:41:41.798Z,39.59
2022-08-09T08:44:26.822Z,39.00
2022-08-09T08:46:59.633Z,39.47
2022-08-09T08:49:38.334Z,39.11
2022-08-09T08:52:10.423Z,39.23
2022-08-09T08:54:39.947Z,38.56
2022-08-09T08:57:11.632Z,37.79
2022-08-09T08:59:46.986Z,38.02
2022-08-09T09:02:31.476Z,38.55
2022-08-09T09:05:06.088Z,39.11
2022-08-09T09:07:42.518Z,38.12
2022-08-09T09:10:11.510Z,37.39
2022-08-09T09:12:40.427Z,36.88
2022-08-09T09:15:08.612Z,37.03
2022-08-09T09:17:49.354Z,36.61
2022-08-09T09:20:21.592Z,36.54
2022-08-09T09:23:01.936Z,35.89
2022-08-09T09:26:00.867Z,35.59
2022-08-09T09:29:02.924Z,35.97
2022-08-09T09:32:01.783Z,36.53
2022-08-09T09:34:14.596Z,36.72
2022-08-09T09:36:52.767Z,35.72
2022-08-09T09:39:42.774Z,35.11
2022-08-09T09:42:26.181Z,36.62
2022-08-09T09:44:59.185Z,36.09
2022-08-09T09:47:28.565Z,36.45
2022-08-09T09:50:13.886Z,36.83
2022-08-09T09:52:53.523Z,36.73
2022-08-09T09:55:29.365Z,36.36
2022-08-09T09:58:15.810Z,36.32
2022-08-09T10:00:52.718Z,35.61
2022-08-09T10:03:44.053Z,35.45
2022-08-09T10:06:13.080Z,35.20
2022-08-09T10:08:55.262Z,34.85
2022-08-09T10:11:54.008Z,35.00
2022-08-09T10:14:30.481Z,35.29
2022-08-09T10:17:23.931Z,34.73
2022-08-09T10:20:01.161Z,34.07
2022-08-09T10:22:33.970Z,34.44
2022-08-09T10:25:12.240Z,34.20
2022-08-09T10:27:56.264Z,33.75
2022-08-09T10:34:08.012Z,33.23
2022-08-09T10:36:09.742Z,34.07
2022-08-09T10:38:56.606Z,34.22
2022-08-09T10:41:28.536Z,34.48
2022-08-09T10:44:01.110Z,33.81
2022-08-09T10:46:54.689Z,32.60
2022-08-09T10:49:51.418Z,33.40
2022-08-09T10:52:46.512Z,33.06
2022-08-09T10:55:25.914Z,31.88
2022-08-09T10:57:56.045Z,31.91
2022-08-09T11:01:10.645Z,32.21
2022-08-09T11:03:49.795Z,32.27
2022-08-09T11:06:22.701Z,32.69
2022-08-09T11:08:53.814Z,33.75
2022-08-09T11:11:23.473Z,31.58
2022-08-09T11:14:35.345Z,29.20
2022-08-09T11:17:03.631Z,29.15
2022-08-09T11:20:12.252Z,29.86
2022-08-09T11:22:44.738Z,28.91
2022-08-09T11:25:46.057Z,27.67
2022-08-09T11:28:33.873Z,27.59
2022-08-09T11:31:34.128Z,27.23
2022-08-09T11:34:10.425Z,26.20
2022-08-09T11:36:43.388Z,25.90
2022-08-09T11:39:12.063Z,25.64
2022-08-09T11:41:41.218Z,25.30
2022-08-09T11:44:09.199Z,26.64
2022-08-09T11:46:57.847Z,27.63
2022-08-09T11:50:53.705Z,27.24
2022-08-09T11:53:21.131Z,27.45
2022-08-09T11:55:53.706Z,25.80
2022-08-09T11:58:33.032Z,25.93
2022-08-09T12:01:08.540Z,25.91
2022-08-09T12:03:55.404Z,26.60
2022-08-09T12:06:32.647Z,25.93
2022-08-09T12:09:19.706Z,25.29
2022-08-09T12:12:04.017Z,25.62
2022-08-09T12:14:40.461Z,25.31
2022-08-09T12:17:34.597Z,22.92
2022-08-09T12:20:16.264Z,23.27
2022-08-09T12:22:50.279Z,23.34
2022-08-09T12:25:36.864Z,23.03
2022-08-09T12:28:58.553Z,22.68
2022-08-09T12:31:31.029Z,22.59
2022-08-09T12:34:31.558Z,22.03
2022-08-09T12:37:21.327Z,22.19
2022-08-09T12:40:01.065Z,23.71
2022-08-09T12:42:30.156Z,22.68
2022-08-09T12:44:59.533Z,23.07
2022-08-09T12:47:32.705Z,23.59
2022-08-09T12:50:17.408Z,23.42
2022-08-09T12:53:18.212Z,21.96
2022-08-09T12:56:16.202Z,22.12
2022-08-09T12:58:28.256Z,21.00
2022-08-09T13:00:57.949Z,20.55
2022-08-09T13:03:56.958Z,19.55
2022-08-09T13:06:34.883Z,19.36
2022-08-09T13:09:12.675Z,19.15
2022-08-09T13:11:43.381Z,18.04
2022-08-09T13:14:42.563Z,19.00
2022-08-09T13:17:16.007Z,16.81
2022-08-09T13:20:09.647Z,17.37
2022-08-09T13:23:06.154Z,17.42
2022-08-09T13:25:24.242Z,15.80
2022-08-09T13:27:55.693Z,15.96
2022-08-09T13:30:50.371Z,17.44
2022-08-09T13:33:22.689Z,16.53
2022-08-09T13:36:39.876Z,16.51
2022-08-09T13:38:57.373Z,17.67
2022-08-09T13:41:58.091Z,16.69
2022-08-09T13:44:17.123Z,17.17
2022-08-09T13:47:26.519Z,16.78
2022-08-09T13:49:39.784Z,16.19
2022-08-09T13:52:24.575Z,17.04
2022-08-09T13:54:58.875Z,15.89
2022-08-09T13:57:35.798Z,16.30
2022-08-09T14:00:18.479Z,17.04
2022-08-09T14:03:03.911Z,16.04
2022-08-09T14:06:00.090Z,15.90
2022-08-09T14:08:28.392Z,15.34
2022-08-09T14:10:56.678Z,15.74
2022-08-09T14:14:15.011Z,15.17
2022-08-09T14:16:18.377Z,14.11
2022-08-09T14:18:49.485Z,13.82
2022-08-09T14:21:22.368Z,14.10
2022-08-09T14:23:56.650Z,15.67
2022-08-09T14:26:32.222Z,15.63
2022-08-09T14:29:07.747Z,14.59
2022-08-09T14:31:52.054Z,14.67
2022-08-09T14:34:32.324Z,14.72
2022-08-09T14:37:06.140Z,14.26
2022-08-09T14:39:45.979Z,14.51
2022-08-09T14:42:30.502Z,14.17
2022-08-09T14:46:39.673Z,14.09
2022-08-09T14:47:57.220Z,14.76
2022-08-09T14:50:29.295Z,15.49
2022-08-09T14:53:01.566Z,15.67
2022-08-09T14:55:32.296Z,16.41
2022-08-09T14:58:03.426Z,15.16
2022-08-09T15:00:33.637Z,15.60
2022-08-09T15:03:03.793Z,15.62
2022-08-09T15:05:32.411Z,15.27
2022-08-09T15:08:00.390Z,15.38
2022-08-09T15:10:31.477Z,15.26
2022-08-09T15:13:01.565Z,16.16
2022-08-09T15:15:34.361Z,15.29
2022-08-09T15:18:14.378Z,14.59
2022-08-09T15:21:56.704Z,14.43
2022-08-09T15:24:01.703Z,13.23
2022-08-09T15:26:30.789Z,14.32
2022-08-09T15:29:02.534Z,17.01
2022-08-09T15:31:42.026Z,17.28
2022-08-09T15:34:32.532Z,17.08
2022-08-09T15:36:58.890Z,17.12
2022-08-09T15:39:34.741Z,16.84
2022-08-09T15:42:11.594Z,15.20
2022-08-09T15:44:39.158Z,16.50
2022-08-09T15:47:07.190Z,16.10
2022-08-09T15:50:00.333Z,16.05
2022-08-09T15:52:29.964Z,15.99
2022-08-09T15:54:58.423Z,15.82
2022-08-09T15:57:35.747Z,14.88
2022-08-09T16:00:24.510Z,13.86
2022-08-09T16:02:56.801Z,15.05
2022-08-09T16:05:47.022Z,14.10
2022-08-09T16:08:31.048Z,15.83
2022-08-09T16:11:01.598Z,16.44
2022-08-09T16:14:04.082Z,17.16
2022-08-09T16:16:26.256Z,18.51
2022-08-09T16:18:55.945Z,17.56
2022-08-09T16:24:48.591Z,16.97
2022-08-09T16:27:25.115Z,17.87
2022-08-09T16:30:01.106Z,17.37
2022-08-09T16:32:54.551Z,17.50
2022-08-09T16:35:56.954Z,18.49
2022-08-09T16:38:11.333Z,19.03
2022-08-09T16:40:41.395Z,18.68
2022-08-09T16:43:09.780Z,19.01
2022-08-09T16:45:44.445Z,19.87
2022-08-09T16:48:41.279Z,19.78
2022-08-09T16:51:08.090Z,19.74
2022-08-09T16:54:08.861Z,19.34
2022-08-09T16:56:31.546Z,20.00
2022-08-09T16:59:01.713Z,20.44
2022-08-09T17:01:35.561Z,20.19
2022-08-09T17:04:05.418Z,20.92
2022-08-09T17:06:47.403Z,21.74
2022-08-09T17:09:45.873Z,22.08
2022-08-09T17:12:10.659Z,22.05
2022-08-09T17:14:38.723Z,21.68
2022-08-09T17:17:23.298Z,22.81
2022-08-09T17:20:28.586Z,23.25
2022-08-09T17:22:52.129Z,24.45
2022-08-09T17:25:22.129Z,22.98
2022-08-09T17:27:54.406Z,23.32
2022-08-09T17:30:29.009Z,24.11
2022-08-09T17:33:04.741Z,24.70
2022-08-09T17:35:35.277Z,25.28
2022-08-09T17:38:24.269Z,26.05
2022-08-09T17:40:57.693Z,28.10
2022-08-09T17:43:34.618Z,29.21
2022-08-09T17:46:09.161Z,29.95
2022-08-09T17:48:46.599Z,30.35
2022-08-09T17:51:21.557Z,30.44
2022-08-09T17:53:51.764Z,30.47
2022-08-09T17:56:32.387Z,31.33
2022-08-09T17:59:09.654Z,31.02
2022-08-09T18:02:06.281Z,31.61
2022-08-09T18:04:29.686Z,31.70
2022-08-09T18:06:58.872Z,31.57
2022-08-09T18:09:40.332Z,31.54
2022-08-09T18:12:19.523Z,31.96
2022-08-09T18:14:55.027Z,32.46
2022-08-09T18:18:01.677Z,32.37
2022-08-09T18:20:55.679Z,32.62
2022-08-09T18:23:05.318Z,32.93
2022-08-09T18:25:53.222Z,32.89
2022-08-09T18:30:38.343Z,33.57
2022-08-09T18:31:15.045Z,33.53
2022-08-09T18:33:53.091Z,33.49
2022-08-09T18:36:25.742Z,33.91
2022-08-09T18:39:02.542Z,34.01
2022-08-09T18:41:34.269Z,34.75
2022-08-09T18:44:13.020Z,33.63
2022-08-09T18:46:50.386Z,33.70
2022-08-09T18:49:32.209Z,33.86
2022-08-09T18:52:10.091Z,34.63
2022-08-09T18:54:42.116Z,35.23
2022-08-09T18:57:22.251Z,35.26
2022-08-09T18:59:55.456Z,35.95
2022-08-09T19:02:32.202Z,35.93
2022-08-09T19:05:14.255Z,35.96
2022-08-09T19:08:04.921Z,35.89
2022-08-09T19:10:37.780Z,36.14
2022-08-09T19:13:22.667Z,36.06
2022-08-09T19:15:55.523Z,36.47
2022-08-09T19:18:33.292Z,36.11
2022-08-09T19:21:05.464Z,36.82
2022-08-09T19:24:35.865Z,36.54
2022-08-09T19:26:29.082Z,36.81
2022-08-09T19:29:03.058Z,36.63
2022-08-09T19:31:44.328Z,36.79
2022-08-09T19:34:21.302Z,37.46
2022-08-09T19:36:55.641Z,37.26
2022-08-09T19:39:42.851Z,37.44
2022-08-09T19:42:14.932Z,37.19
2022-08-09T19:44:50.496Z,37.19
2022-08-09T19:47:23.662Z,36.93
2022-08-09T19:50:07.976Z,36.48
2022-08-09T19:52:51.792Z,36.65
2022-08-09T19:55:25.539Z,37.19
2022-08-09T19:57:54.147Z,37.47
2022-08-09T20:00:22.088Z,37.96
2022-08-09T20:04:10.524Z,38.21
2022-08-09T20:08:34.952Z,38.98
2022-08-09T20:11:04.837Z,39.77
2022-08-09T20:13:37.203Z,39.40
2022-08-09T20:16:37.681Z,39.80
2022-08-09T20:19:42.900Z,40.17
2022-08-09T20:21:56.209Z,40.23
2022-08-09T20:24:29.737Z,40.74
2022-08-09T20:27:08.287Z,41.17
2022-08-09T20:29:39.709Z,41.25
2022-08-09T20:32:30.971Z,41.78
2022-08-09T20:34:58.570Z,42.06
2022-08-09T20:37:37.812Z,42.21
2022-08-09T20:40:18.876Z,41.76
2022-08-09T20:42:59.222Z,42.59
2022-08-09T20:45:59.071Z,42.62
2022-08-09T20:48:21.353Z,43.29
2022-08-09T20:50:55.719Z,43.23
2022-08-09T20:53:37.768Z,43.17
2022-08-09T20:56:20.187Z,43.06
2022-08-09T20:58:54.217Z,43.47
2022-08-09T21:01:35.508Z,43.38
2022-08-09T21:05:52.594Z,43.98
2022-08-09T21:07:11.942Z,44.65
2022-08-09T21:09:56.967Z,44.70
2022-08-09T21:15:17.518Z,44.64
2022-08-09T21:18:23.352Z,45.87
2022-08-09T21:20:41.738Z,45.48
2022-08-09T21:23:13.412Z,45.36
2022-08-09T21:25:59.843Z,45.98
2022-08-09T21:28:34.360Z,46.75
2022-08-09T21:31:18.079Z,46.56
2022-08-09T21:33:51.683Z,46.82
2022-08-09T21:36:22.948Z,46.69
2022-08-09T21:38:57.481Z,46.69
2022-08-09T21:42:05.814Z,47.22
2022-08-09T21:44:33.903Z,47.10
2022-08-09T21:47:09.182Z,47.46
2022-08-09T21:49:40.351Z,47.94
2022-08-09T21:52:14.914Z,47.89
2022-08-09T21:55:03.006Z,47.71
2022-08-09T21:57:38.383Z,47.02
2022-08-09T22:00:32.252Z,46.96
2022-08-09T22:03:04.743Z,46.61
2022-08-09T22:05:42.402Z,47.05
2022-08-09T22:08:16.095Z,47.15
2022-08-09T22:11:00.877Z,47.33
2022-08-09T22:13:37.409Z,48.17
2022-08-09T22:16:08.377Z,48.37
2022-08-09T22:18:44.008Z,48.34
2022-08-09T22:21:24.997Z,48.53
2022-08-09T22:24:01.309Z,48.80
2022-08-09T22:26:34.987Z,49.46
2022-08-09T22:29:09.017Z,49.60
2022-08-09T22:31:50.344Z,48.66
2022-08-09T22:34:27.925Z,48.93
2022-08-09T22:36:59.045Z,49.23
2022-08-09T22:39:55.757Z,49.09
2022-08-09T22:42:22.088Z,48.81
2022-08-09T22:45:00.220Z,48.02
2022-08-09T22:48:33.722Z,47.86
2022-08-09T22:50:32.788Z,48.37
2022-08-09T22:53:03.629Z,48.11
2022-08-09T22:56:29.431Z,47.90
2022-08-09T22:58:32.825Z,47.88
2022-08-09T23:01:05.952Z,47.66
2022-08-09T23:04:03.887Z,47.55
2022-08-09T23:06:35.859Z,47.63
2022-08-09T23:09:06.229Z,47.18
2022-08-09T23:11:34.565Z,47.51
2022-08-09T23:14:03.685Z,46.94
2022-08-09T23:16:32.097Z,47.11
2022-08-09T23:19:00.934Z,47.45
2022-08-09T23:21:33.719Z,47.75
2022-08-09T23:24:06.211Z,48.23
2022-08-09T23:26:39.170Z,48.50
2022-08-09T23:29:11.499Z,48.51
2022-08-09T23:31:41.139Z,49.09
2022-08-09T23:34:09.120Z,48.51
2022-08-09T23:36:37.150Z,47.97
2022-08-09T23:39:06.586Z,48.49
2022-08-09T23:41:35.448Z,47.07
2022-08-09T23:44:04.639Z,47.18
2022-08-09T23:46:33.187Z,47.34
2022-08-09T23:49:01.595Z,47.07
2022-08-09T23:51:29.242Z,46.97
2022-08-09T23:54:02.017Z,46.55
2022-08-09T23:56:52.775Z,45.96
2022-08-09T23:59:24.609Z,46.02
